sensor_id;sensor_type;location;lat;lon;timestamp;temperature;humidity
51615;DHT22;37695;52.960;6.188;2023-06-14T00:00:17;16.40;92.30
51615;DHT22;37695;52.960;6.188;2023-06-14T00:02:43;16.40;91.90
51615;DHT22;37695;52.960;6.188;2023-06-14T00:05:08;16.30;92.00
51615;DHT22;37695;52.960;6.188;2023-06-14T00:07:39;16.30;91.80
51615;DHT22;37695;52.960;6.188;2023-06-14T00:10:09;16.30;92.40
51615;DHT22;37695;52.960;6.188;2023-06-14T00:12:35;16.20;92.20
51615;DHT22;37695;52.960;6.188;2023-06-14T00:15:01;16.20;92.50
51615;DHT22;37695;52.960;6.188;2023-06-14T00:17:27;16.10;92.20
51615;DHT22;37695;52.960;6.188;2023-06-14T00:19:59;16.10;92.10
51615;DHT22;37695;52.960;6.188;2023-06-14T00:22:25;16.00;92.50
51615;DHT22;37695;52.960;6.188;2023-06-14T00:24:54;16.00;92.90
51615;DHT22;37695;52.960;6.188;2023-06-14T00:27:20;15.90;92.60
51615;DHT22;37695;52.960;6.188;2023-06-14T00:29:46;15.90;92.90
51615;DHT22;37695;52.960;6.188;2023-06-14T00:32:11;15.80;93.60
51615;DHT22;37695;52.960;6.188;2023-06-14T00:34:37;15.80;93.90
51615;DHT22;37695;52.960;6.188;2023-06-14T00:37:02;15.80;94.10
51615;DHT22;37695;52.960;6.188;2023-06-14T00:39:28;15.80;94.20
51615;DHT22;37695;52.960;6.188;2023-06-14T00:41:53;15.70;94.10
51615;DHT22;37695;52.960;6.188;2023-06-14T00:44:19;15.70;94.80
51615;DHT22;37695;52.960;6.188;2023-06-14T00:46:47;15.60;94.80
51615;DHT22;37695;52.960;6.188;2023-06-14T00:49:17;15.50;94.70
51615;DHT22;37695;52.960;6.188;2023-06-14T00:51:43;15.60;94.90
51615;DHT22;37695;52.960;6.188;2023-06-14T00:54:09;15.50;95.10
51615;DHT22;37695;52.960;6.188;2023-06-14T00:56:38;15.40;95.00
51615;DHT22;37695;52.960;6.188;2023-06-14T00:59:04;15.40;95.10
51615;DHT22;37695;52.960;6.188;2023-06-14T01:01:31;15.40;95.10
51615;DHT22;37695;52.960;6.188;2023-06-14T01:03:59;15.30;95.30
51615;DHT22;37695;52.960;6.188;2023-06-14T01:06:35;15.00;95.60
51615;DHT22;37695;52.960;6.188;2023-06-14T01:09:18;15.20;95.60
51615;DHT22;37695;52.960;6.188;2023-06-14T01:11:59;15.20;95.40
51615;DHT22;37695;52.960;6.188;2023-06-14T01:14:27;15.20;95.80
51615;DHT22;37695;52.960;6.188;2023-06-14T01:16:54;15.10;95.70
51615;DHT22;37695;52.960;6.188;2023-06-14T01:19:20;15.10;96.10
51615;DHT22;37695;52.960;6.188;2023-06-14T01:21:48;15.00;96.20
51615;DHT22;37695;52.960;6.188;2023-06-14T01:24:16;15.00;96.80
51615;DHT22;37695;52.960;6.188;2023-06-14T01:26:45;15.00;96.70
51615;DHT22;37695;52.960;6.188;2023-06-14T01:29:13;14.90;97.10
51615;DHT22;37695;52.960;6.188;2023-06-14T01:31:43;14.90;97.60
51615;DHT22;37695;52.960;6.188;2023-06-14T01:34:09;14.80;97.40
51615;DHT22;37695;52.960;6.188;2023-06-14T01:36:36;14.70;97.90
51615;DHT22;37695;52.960;6.188;2023-06-14T01:39:06;14.70;97.80
51615;DHT22;37695;52.960;6.188;2023-06-14T01:41:33;14.70;98.20
51615;DHT22;37695;52.960;6.188;2023-06-14T01:44:01;14.70;98.50
51615;DHT22;37695;52.960;6.188;2023-06-14T01:46:27;14.60;98.70
51615;DHT22;37695;52.960;6.188;2023-06-14T01:48:53;14.60;99.30
51615;DHT22;37695;52.960;6.188;2023-06-14T01:51:18;14.60;99.20
51615;DHT22;37695;52.960;6.188;2023-06-14T01:53:44;14.60;99.30
51615;DHT22;37695;52.960;6.188;2023-06-14T01:56:09;14.50;99.70
51615;DHT22;37695;52.960;6.188;2023-06-14T01:58:35;14.50;99.90
51615;DHT22;37695;52.960;6.188;2023-06-14T02:01:01;14.50;99.90
51615;DHT22;37695;52.960;6.188;2023-06-14T02:03:27;14.50;99.90
51615;DHT22;37695;52.960;6.188;2023-06-14T02:05:53;14.50;99.90
51615;DHT22;37695;52.960;6.188;2023-06-14T02:08:19;14.40;99.90
51615;DHT22;37695;52.960;6.188;2023-06-14T02:10:45;14.40;99.90
51615;DHT22;37695;52.960;6.188;2023-06-14T02:13:10;14.30;99.90
51615;DHT22;37695;52.960;6.188;2023-06-14T02:15:37;14.40;99.90
51615;DHT22;37695;52.960;6.188;2023-06-14T02:18:03;14.30;99.90
51615;DHT22;37695;52.960;6.188;2023-06-14T02:20:29;14.30;99.90
51615;DHT22;37695;52.960;6.188;2023-06-14T02:22:55;14.30;99.90
51615;DHT22;37695;52.960;6.188;2023-06-14T02:25:21;14.30;99.90
51615;DHT22;37695;52.960;6.188;2023-06-14T02:27:46;14.30;99.90
51615;DHT22;37695;52.960;6.188;2023-06-14T02:30:12;14.30;99.90
51615;DHT22;37695;52.960;6.188;2023-06-14T02:32:38;14.30;99.90
51615;DHT22;37695;52.960;6.188;2023-06-14T02:35:04;14.20;99.90
51615;DHT22;37695;52.960;6.188;2023-06-14T02:37:29;14.30;99.90
51615;DHT22;37695;52.960;6.188;2023-06-14T02:39:56;14.20;99.90
51615;DHT22;37695;52.960;6.188;2023-06-14T02:42:21;14.20;99.90
51615;DHT22;37695;52.960;6.188;2023-06-14T02:44:47;14.20;99.90
51615;DHT22;37695;52.960;6.188;2023-06-14T02:47:17;14.20;99.90
51615;DHT22;37695;52.960;6.188;2023-06-14T02:49:43;14.10;99.90
51615;DHT22;37695;52.960;6.188;2023-06-14T02:52:08;14.10;99.90
51615;DHT22;37695;52.960;6.188;2023-06-14T02:54:35;14.10;99.90
51615;DHT22;37695;52.960;6.188;2023-06-14T02:57:01;14.10;99.90
51615;DHT22;37695;52.960;6.188;2023-06-14T02:59:27;14.00;99.90
51615;DHT22;37695;52.960;6.188;2023-06-14T03:01:52;14.00;99.90
51615;DHT22;37695;52.960;6.188;2023-06-14T03:04:18;14.10;99.90
51615;DHT22;37695;52.960;6.188;2023-06-14T03:06:44;14.00;99.90
51615;DHT22;37695;52.960;6.188;2023-06-14T03:09:09;14.00;99.90
51615;DHT22;37695;52.960;6.188;2023-06-14T03:11:35;14.00;99.90
51615;DHT22;37695;52.960;6.188;2023-06-14T03:14:01;14.00;99.90
51615;DHT22;37695;52.960;6.188;2023-06-14T03:16:29;13.90;99.90
51615;DHT22;37695;52.960;6.188;2023-06-14T03:18:55;13.90;99.90
51615;DHT22;37695;52.960;6.188;2023-06-14T03:21:21;13.90;99.90
51615;DHT22;37695;52.960;6.188;2023-06-14T03:23:47;13.90;99.90
51615;DHT22;37695;52.960;6.188;2023-06-14T03:26:14;13.90;99.90
51615;DHT22;37695;52.960;6.188;2023-06-14T03:28:43;13.90;99.90
51615;DHT22;37695;52.960;6.188;2023-06-14T03:31:09;13.90;99.90
51615;DHT22;37695;52.960;6.188;2023-06-14T03:33:34;13.90;99.90
51615;DHT22;37695;52.960;6.188;2023-06-14T03:36:01;13.90;99.90
51615;DHT22;37695;52.960;6.188;2023-06-14T03:38:27;13.90;99.90
51615;DHT22;37695;52.960;6.188;2023-06-14T03:40:52;13.90;99.90
51615;DHT22;37695;52.960;6.188;2023-06-14T03:43:18;13.90;99.90
51615;DHT22;37695;52.960;6.188;2023-06-14T03:45:43;13.90;99.90
51615;DHT22;37695;52.960;6.188;2023-06-14T03:48:09;13.90;99.90
51615;DHT22;37695;52.960;6.188;2023-06-14T03:50:35;14.00;99.90
51615;DHT22;37695;52.960;6.188;2023-06-14T03:53:04;14.00;99.90
51615;DHT22;37695;52.960;6.188;2023-06-14T03:55:29;14.00;99.90
51615;DHT22;37695;52.960;6.188;2023-06-14T03:57:57;14.00;99.90
51615;DHT22;37695;52.960;6.188;2023-06-14T04:00:22;14.00;99.90
51615;DHT22;37695;52.960;6.188;2023-06-14T04:02:48;14.00;99.90
51615;DHT22;37695;52.960;6.188;2023-06-14T04:05:14;13.90;99.90
51615;DHT22;37695;52.960;6.188;2023-06-14T04:07:42;13.90;99.90
51615;DHT22;37695;52.960;6.188;2023-06-14T04:10:12;14.00;99.90
51615;DHT22;37695;52.960;6.188;2023-06-14T04:12:37;14.00;99.90
51615;DHT22;37695;52.960;6.188;2023-06-14T04:15:03;14.00;99.90
51615;DHT22;37695;52.960;6.188;2023-06-14T04:17:31;14.00;99.90
51615;DHT22;37695;52.960;6.188;2023-06-14T04:19:58;13.90;99.90
51615;DHT22;37695;52.960;6.188;2023-06-14T04:22:25;13.90;99.90
51615;DHT22;37695;52.960;6.188;2023-06-14T04:24:54;14.00;99.90
51615;DHT22;37695;52.960;6.188;2023-06-14T04:27:22;14.00;99.90
51615;DHT22;37695;52.960;6.188;2023-06-14T04:29:54;14.00;99.90
51615;DHT22;37695;52.960;6.188;2023-06-14T04:32:26;14.00;99.90
51615;DHT22;37695;52.960;6.188;2023-06-14T04:34:55;14.10;99.90
51615;DHT22;37695;52.960;6.188;2023-06-14T04:37:21;14.10;99.90
51615;DHT22;37695;52.960;6.188;2023-06-14T04:39:48;14.10;99.90
51615;DHT22;37695;52.960;6.188;2023-06-14T04:42:13;14.20;99.90
51615;DHT22;37695;52.960;6.188;2023-06-14T04:44:45;14.20;99.90
51615;DHT22;37695;52.960;6.188;2023-06-14T04:47:12;14.20;99.90
51615;DHT22;37695;52.960;6.188;2023-06-14T04:49:39;14.30;99.90
51615;DHT22;37695;52.960;6.188;2023-06-14T04:52:07;14.30;99.90
51615;DHT22;37695;52.960;6.188;2023-06-14T04:54:33;14.30;99.90
51615;DHT22;37695;52.960;6.188;2023-06-14T04:56:59;14.40;99.90
51615;DHT22;37695;52.960;6.188;2023-06-14T04:59:25;14.40;99.90
51615;DHT22;37695;52.960;6.188;2023-06-14T05:01:51;14.50;99.90
51615;DHT22;37695;52.960;6.188;2023-06-14T05:04:17;14.50;99.90
51615;DHT22;37695;52.960;6.188;2023-06-14T05:06:43;14.60;99.90
51615;DHT22;37695;52.960;6.188;2023-06-14T05:09:11;14.60;99.90
51615;DHT22;37695;52.960;6.188;2023-06-14T05:11:36;14.70;99.90
51615;DHT22;37695;52.960;6.188;2023-06-14T05:14:02;14.80;99.90
51615;DHT22;37695;52.960;6.188;2023-06-14T05:16:27;14.80;99.90
51615;DHT22;37695;52.960;6.188;2023-06-14T05:18:54;14.80;99.90
51615;DHT22;37695;52.960;6.188;2023-06-14T05:21:20;14.80;99.90
51615;DHT22;37695;52.960;6.188;2023-06-14T05:23:46;14.90;99.90
51615;DHT22;37695;52.960;6.188;2023-06-14T05:26:11;15.00;99.90
51615;DHT22;37695;52.960;6.188;2023-06-14T05:28:37;15.10;99.90
51615;DHT22;37695;52.960;6.188;2023-06-14T05:31:03;15.10;99.90
51615;DHT22;37695;52.960;6.188;2023-06-14T05:33:28;15.20;99.90
51615;DHT22;37695;52.960;6.188;2023-06-14T05:35:54;15.30;99.90
51615;DHT22;37695;52.960;6.188;2023-06-14T05:38:20;15.30;99.90
51615;DHT22;37695;52.960;6.188;2023-06-14T05:40:46;15.40;99.90
51615;DHT22;37695;52.960;6.188;2023-06-14T05:43:11;15.50;99.90
51615;DHT22;37695;52.960;6.188;2023-06-14T05:45:37;15.50;99.90
51615;DHT22;37695;52.960;6.188;2023-06-14T05:48:03;15.60;99.90
51615;DHT22;37695;52.960;6.188;2023-06-14T05:50:28;15.70;99.90
51615;DHT22;37695;52.960;6.188;2023-06-14T05:52:54;15.70;99.90
51615;DHT22;37695;52.960;6.188;2023-06-14T05:55:20;15.80;99.90
51615;DHT22;37695;52.960;6.188;2023-06-14T05:57:45;15.90;99.90
51615;DHT22;37695;52.960;6.188;2023-06-14T06:00:11;15.90;99.90
51615;DHT22;37695;52.960;6.188;2023-06-14T06:02:40;16.00;99.90
51615;DHT22;37695;52.960;6.188;2023-06-14T06:05:08;16.10;99.90
51615;DHT22;37695;52.960;6.188;2023-06-14T06:07:34;16.20;99.90
51615;DHT22;37695;52.960;6.188;2023-06-14T06:09:59;16.30;99.90
51615;DHT22;37695;52.960;6.188;2023-06-14T06:12:25;16.40;99.90
51615;DHT22;37695;52.960;6.188;2023-06-14T06:14:50;16.50;99.90
51615;DHT22;37695;52.960;6.188;2023-06-14T06:17:16;16.50;99.90
51615;DHT22;37695;52.960;6.188;2023-06-14T06:19:41;16.70;99.90
51615;DHT22;37695;52.960;6.188;2023-06-14T06:22:07;16.80;99.90
51615;DHT22;37695;52.960;6.188;2023-06-14T06:24:33;16.90;99.90
51615;DHT22;37695;52.960;6.188;2023-06-14T06:26:59;17.00;99.90
51615;DHT22;37695;52.960;6.188;2023-06-14T06:29:24;17.10;99.90
51615;DHT22;37695;52.960;6.188;2023-06-14T06:31:50;17.20;99.90
51615;DHT22;37695;52.960;6.188;2023-06-14T06:34:15;17.30;99.90
51615;DHT22;37695;52.960;6.188;2023-06-14T06:36:41;17.50;99.90
51615;DHT22;37695;52.960;6.188;2023-06-14T06:39:07;17.70;99.90
51615;DHT22;37695;52.960;6.188;2023-06-14T06:41:37;17.80;99.90
51615;DHT22;37695;52.960;6.188;2023-06-14T06:44:05;17.90;99.90
51615;DHT22;37695;52.960;6.188;2023-06-14T06:46:31;18.10;99.90
51615;DHT22;37695;52.960;6.188;2023-06-14T06:48:57;18.20;99.90
51615;DHT22;37695;52.960;6.188;2023-06-14T06:51:22;18.30;99.90
51615;DHT22;37695;52.960;6.188;2023-06-14T06:53:53;18.50;99.90
51615;DHT22;37695;52.960;6.188;2023-06-14T06:56:19;18.60;99.90
51615;DHT22;37695;52.960;6.188;2023-06-14T06:58:45;18.70;99.90
51615;DHT22;37695;52.960;6.188;2023-06-14T07:01:10;18.90;99.40
51615;DHT22;37695;52.960;6.188;2023-06-14T07:03:37;19.00;99.80
51615;DHT22;37695;52.960;6.188;2023-06-14T07:06:02;19.10;99.10
51615;DHT22;37695;52.960;6.188;2023-06-14T07:08:29;19.20;98.90
51615;DHT22;37695;52.960;6.188;2023-06-14T07:10:54;19.30;97.70
51615;DHT22;37695;52.960;6.188;2023-06-14T07:13:20;19.50;98.90
51615;DHT22;37695;52.960;6.188;2023-06-14T07:15:46;19.60;98.20
51615;DHT22;37695;52.960;6.188;2023-06-14T07:18:12;19.70;97.00
51615;DHT22;37695;52.960;6.188;2023-06-14T07:20:38;19.90;97.40
51615;DHT22;37695;52.960;6.188;2023-06-14T07:23:04;20.10;97.80
51615;DHT22;37695;52.960;6.188;2023-06-14T07:25:30;20.20;97.50
51615;DHT22;37695;52.960;6.188;2023-06-14T07:27:56;20.30;97.20
51615;DHT22;37695;52.960;6.188;2023-06-14T07:30:21;20.50;96.30
51615;DHT22;37695;52.960;6.188;2023-06-14T07:32:51;20.60;95.90
51615;DHT22;37695;52.960;6.188;2023-06-14T07:35:18;20.70;95.50
51615;DHT22;37695;52.960;6.188;2023-06-14T07:37:43;20.80;95.90
51615;DHT22;37695;52.960;6.188;2023-06-14T07:40:09;20.90;96.10
51615;DHT22;37695;52.960;6.188;2023-06-14T07:42:36;21.00;95.10
51615;DHT22;37695;52.960;6.188;2023-06-14T07:45:05;21.10;94.80
51615;DHT22;37695;52.960;6.188;2023-06-14T07:47:31;21.20;94.30
51615;DHT22;37695;52.960;6.188;2023-06-14T07:49:57;21.30;95.40
51615;DHT22;37695;52.960;6.188;2023-06-14T07:52:22;21.40;96.00
51615;DHT22;37695;52.960;6.188;2023-06-14T07:54:48;21.50;94.90
51615;DHT22;37695;52.960;6.188;2023-06-14T07:57:13;21.50;93.80
51615;DHT22;37695;52.960;6.188;2023-06-14T07:59:39;21.60;94.70
51615;DHT22;37695;52.960;6.188;2023-06-14T08:02:05;21.60;93.60
51615;DHT22;37695;52.960;6.188;2023-06-14T08:04:31;21.60;93.20
51615;DHT22;37695;52.960;6.188;2023-06-14T08:06:57;21.70;93.80
51615;DHT22;37695;52.960;6.188;2023-06-14T08:09:22;21.80;93.40
51615;DHT22;37695;52.960;6.188;2023-06-14T08:11:49;21.90;94.60
51615;DHT22;37695;52.960;6.188;2023-06-14T08:14:15;21.90;92.40
51615;DHT22;37695;52.960;6.188;2023-06-14T08:16:41;22.00;93.90
51615;DHT22;37695;52.960;6.188;2023-06-14T08:19:07;22.10;94.40
51615;DHT22;37695;52.960;6.188;2023-06-14T08:21:33;22.20;93.40
51615;DHT22;37695;52.960;6.188;2023-06-14T08:23:58;22.20;92.00
51615;DHT22;37695;52.960;6.188;2023-06-14T08:26:25;22.40;92.80
51615;DHT22;37695;52.960;6.188;2023-06-14T08:28:54;22.40;91.80
51615;DHT22;37695;52.960;6.188;2023-06-14T08:31:20;22.60;92.70
51615;DHT22;37695;52.960;6.188;2023-06-14T08:33:46;22.70;93.40
51615;DHT22;37695;52.960;6.188;2023-06-14T08:36:11;22.80;93.20
51615;DHT22;37695;52.960;6.188;2023-06-14T08:38:38;22.90;92.00
51615;DHT22;37695;52.960;6.188;2023-06-14T08:41:05;22.80;89.00
51615;DHT22;37695;52.960;6.188;2023-06-14T08:43:32;22.90;91.50
51615;DHT22;37695;52.960;6.188;2023-06-14T08:45:59;22.80;90.50
51615;DHT22;37695;52.960;6.188;2023-06-14T08:48:29;22.80;90.90
51615;DHT22;37695;52.960;6.188;2023-06-14T08:50:59;22.90;91.00
51615;DHT22;37695;52.960;6.188;2023-06-14T08:53:31;23.10;91.70
51615;DHT22;37695;52.960;6.188;2023-06-14T08:56:00;23.10;90.50
51615;DHT22;37695;52.960;6.188;2023-06-14T08:58:33;23.20;90.70
51615;DHT22;37695;52.960;6.188;2023-06-14T09:01:03;23.20;89.70
51615;DHT22;37695;52.960;6.188;2023-06-14T09:03:30;23.30;88.30
51615;DHT22;37695;52.960;6.188;2023-06-14T09:05:59;23.40;90.20
51615;DHT22;37695;52.960;6.188;2023-06-14T09:08:27;23.50;87.20
51615;DHT22;37695;52.960;6.188;2023-06-14T09:10:56;23.60;89.90
51615;DHT22;37695;52.960;6.188;2023-06-14T09:13:22;23.70;88.70
51615;DHT22;37695;52.960;6.188;2023-06-14T09:15:47;23.60;83.90
51615;DHT22;37695;52.960;6.188;2023-06-14T09:18:13;23.60;87.70
51615;DHT22;37695;52.960;6.188;2023-06-14T09:20:38;23.80;90.30
51615;DHT22;37695;52.960;6.188;2023-06-14T09:23:05;23.90;85.60
51615;DHT22;37695;52.960;6.188;2023-06-14T09:25:30;23.90;86.30
51615;DHT22;37695;52.960;6.188;2023-06-14T09:27:56;24.10;88.10
51615;DHT22;37695;52.960;6.188;2023-06-14T09:30:21;24.20;85.30
51615;DHT22;37695;52.960;6.188;2023-06-14T09:32:47;24.20;86.30
51615;DHT22;37695;52.960;6.188;2023-06-14T09:35:17;24.20;84.30
51615;DHT22;37695;52.960;6.188;2023-06-14T09:37:43;24.50;86.50
51615;DHT22;37695;52.960;6.188;2023-06-14T09:40:09;24.70;86.30
51615;DHT22;37695;52.960;6.188;2023-06-14T09:42:36;24.70;83.60
51615;DHT22;37695;52.960;6.188;2023-06-14T09:45:03;24.60;83.00
51615;DHT22;37695;52.960;6.188;2023-06-14T09:47:29;24.80;84.50
51615;DHT22;37695;52.960;6.188;2023-06-14T09:49:55;24.80;84.00
51615;DHT22;37695;52.960;6.188;2023-06-14T09:52:21;24.90;85.90
51615;DHT22;37695;52.960;6.188;2023-06-14T09:54:48;24.90;79.90
51615;DHT22;37695;52.960;6.188;2023-06-14T09:57:22;24.90;81.10
51615;DHT22;37695;52.960;6.188;2023-06-14T09:59:49;25.10;82.60
51615;DHT22;37695;52.960;6.188;2023-06-14T10:02:28;25.30;83.40
51615;DHT22;37695;52.960;6.188;2023-06-14T10:05:05;25.30;84.60
51615;DHT22;37695;52.960;6.188;2023-06-14T10:08:04;25.50;83.70
51615;DHT22;37695;52.960;6.188;2023-06-14T10:10:29;25.40;80.20
51615;DHT22;37695;52.960;6.188;2023-06-14T10:12:56;25.40;80.60
51615;DHT22;37695;52.960;6.188;2023-06-14T10:15:30;25.30;77.90
51615;DHT22;37695;52.960;6.188;2023-06-14T10:18:04;25.30;78.20
51615;DHT22;37695;52.960;6.188;2023-06-14T10:23:23;25.40;78.00
51615;DHT22;37695;52.960;6.188;2023-06-14T10:25:50;25.70;80.80
51615;DHT22;37695;52.960;6.188;2023-06-14T10:28:20;25.80;78.80
51615;DHT22;37695;52.960;6.188;2023-06-14T10:31:07;26.00;79.10
51615;DHT22;37695;52.960;6.188;2023-06-14T10:33:48;26.00;77.50
51615;DHT22;37695;52.960;6.188;2023-06-14T10:36:31;26.10;76.30
51615;DHT22;37695;52.960;6.188;2023-06-14T10:39:06;26.10;77.90
51615;DHT22;37695;52.960;6.188;2023-06-14T10:41:40;26.20;76.60
51615;DHT22;37695;52.960;6.188;2023-06-14T10:46:38;26.30;76.00
51615;DHT22;37695;52.960;6.188;2023-06-14T10:49:03;25.90;76.50
51615;DHT22;37695;52.960;6.188;2023-06-14T10:51:29;26.10;77.60
51615;DHT22;37695;52.960;6.188;2023-06-14T10:53:56;26.10;76.80
51615;DHT22;37695;52.960;6.188;2023-06-14T10:56:29;26.20;77.20
51615;DHT22;37695;52.960;6.188;2023-06-14T10:58:57;26.30;77.50
51615;DHT22;37695;52.960;6.188;2023-06-14T11:01:36;26.40;76.20
51615;DHT22;37695;52.960;6.188;2023-06-14T11:04:10;26.70;77.30
51615;DHT22;37695;52.960;6.188;2023-06-14T11:07:10;26.60;72.60
51615;DHT22;37695;52.960;6.188;2023-06-14T11:10:10;26.80;74.30
51615;DHT22;37695;52.960;6.188;2023-06-14T11:12:38;26.70;76.10
51615;DHT22;37695;52.960;6.188;2023-06-14T11:15:05;26.80;76.80
51615;DHT22;37695;52.960;6.188;2023-06-14T11:17:33;26.80;74.40
51615;DHT22;37695;52.960;6.188;2023-06-14T11:20:11;26.50;69.20
51615;DHT22;37695;52.960;6.188;2023-06-14T11:22:42;26.60;72.40
51615;DHT22;37695;52.960;6.188;2023-06-14T11:25:14;26.80;74.60
51615;DHT22;37695;52.960;6.188;2023-06-14T11:27:42;26.80;74.10
51615;DHT22;37695;52.960;6.188;2023-06-14T11:30:08;26.80;70.50
51615;DHT22;37695;52.960;6.188;2023-06-14T11:32:36;27.10;73.30
51615;DHT22;37695;52.960;6.188;2023-06-14T11:35:02;27.20;72.10
51615;DHT22;37695;52.960;6.188;2023-06-14T11:37:30;27.00;69.70
51615;DHT22;37695;52.960;6.188;2023-06-14T11:40:06;27.20;69.90
51615;DHT22;37695;52.960;6.188;2023-06-14T11:42:44;27.10;72.20
51615;DHT22;37695;52.960;6.188;2023-06-14T11:45:11;27.30;73.60
51615;DHT22;37695;52.960;6.188;2023-06-14T11:47:38;27.20;71.60
51615;DHT22;37695;52.960;6.188;2023-06-14T11:50:06;27.20;70.10
51615;DHT22;37695;52.960;6.188;2023-06-14T11:52:32;27.20;68.40
51615;DHT22;37695;52.960;6.188;2023-06-14T11:54:58;27.30;71.90
51615;DHT22;37695;52.960;6.188;2023-06-14T11:57:24;27.10;70.70
51615;DHT22;37695;52.960;6.188;2023-06-14T11:59:51;27.20;69.10
51615;DHT22;37695;52.960;6.188;2023-06-14T12:02:18;27.20;69.50
51615;DHT22;37695;52.960;6.188;2023-06-14T12:04:46;27.20;69.80
51615;DHT22;37695;52.960;6.188;2023-06-14T12:07:16;27.30;71.40
51615;DHT22;37695;52.960;6.188;2023-06-14T12:12:25;27.30;67.10
51615;DHT22;37695;52.960;6.188;2023-06-14T12:14:51;27.60;69.10
51615;DHT22;37695;52.960;6.188;2023-06-14T12:17:17;27.70;67.20
51615;DHT22;37695;52.960;6.188;2023-06-14T12:19:44;27.10;68.70
51615;DHT22;37695;52.960;6.188;2023-06-14T12:22:11;27.10;69.40
51615;DHT22;37695;52.960;6.188;2023-06-14T12:24:36;27.00;69.70
51615;DHT22;37695;52.960;6.188;2023-06-14T12:27:03;27.20;69.80
51615;DHT22;37695;52.960;6.188;2023-06-14T12:29:29;27.50;71.50
51615;DHT22;37695;52.960;6.188;2023-06-14T12:31:55;27.60;69.40
51615;DHT22;37695;52.960;6.188;2023-06-14T12:34:23;27.50;69.20
51615;DHT22;37695;52.960;6.188;2023-06-14T12:36:50;27.30;69.00
51615;DHT22;37695;52.960;6.188;2023-06-14T12:39:16;27.20;68.80
51615;DHT22;37695;52.960;6.188;2023-06-14T12:41:42;27.30;69.50
51615;DHT22;37695;52.960;6.188;2023-06-14T12:44:07;27.40;69.90
51615;DHT22;37695;52.960;6.188;2023-06-14T12:46:33;27.60;71.80
51615;DHT22;37695;52.960;6.188;2023-06-14T12:49:00;27.60;68.20
51615;DHT22;37695;52.960;6.188;2023-06-14T12:51:26;27.10;69.60
51615;DHT22;37695;52.960;6.188;2023-06-14T12:53:51;26.80;68.10
51615;DHT22;37695;52.960;6.188;2023-06-14T12:56:17;26.70;71.20
51615;DHT22;37695;52.960;6.188;2023-06-14T12:58:43;26.70;70.70
51615;DHT22;37695;52.960;6.188;2023-06-14T13:01:09;26.70;68.80
51615;DHT22;37695;52.960;6.188;2023-06-14T13:03:34;26.80;69.50
51615;DHT22;37695;52.960;6.188;2023-06-14T13:06:01;26.80;69.20
51615;DHT22;37695;52.960;6.188;2023-06-14T13:08:27;27.00;71.50
51615;DHT22;37695;52.960;6.188;2023-06-14T13:10:53;27.20;71.40
51615;DHT22;37695;52.960;6.188;2023-06-14T13:13:19;27.30;69.60
51615;DHT22;37695;52.960;6.188;2023-06-14T13:15:44;27.10;67.80
51615;DHT22;37695;52.960;6.188;2023-06-14T13:18:11;27.00;68.80
51615;DHT22;37695;52.960;6.188;2023-06-14T13:20:39;27.30;71.50
51615;DHT22;37695;52.960;6.188;2023-06-14T13:23:05;27.40;66.60
51615;DHT22;37695;52.960;6.188;2023-06-14T13:25:33;27.40;68.10
51615;DHT22;37695;52.960;6.188;2023-06-14T13:27:59;27.60;70.40
51615;DHT22;37695;52.960;6.188;2023-06-14T13:30:25;27.40;68.20
51615;DHT22;37695;52.960;6.188;2023-06-14T13:32:51;27.30;67.10
51615;DHT22;37695;52.960;6.188;2023-06-14T13:35:18;27.00;66.90
51615;DHT22;37695;52.960;6.188;2023-06-14T13:37:44;26.80;66.30
51615;DHT22;37695;52.960;6.188;2023-06-14T13:40:10;26.70;66.90
51615;DHT22;37695;52.960;6.188;2023-06-14T13:42:36;26.90;68.20
51615;DHT22;37695;52.960;6.188;2023-06-14T13:45:03;26.80;67.20
51615;DHT22;37695;52.960;6.188;2023-06-14T13:47:29;26.90;70.90
51615;DHT22;37695;52.960;6.188;2023-06-14T13:49:56;26.90;69.90
51615;DHT22;37695;52.960;6.188;2023-06-14T13:52:21;26.80;68.80
51615;DHT22;37695;52.960;6.188;2023-06-14T13:54:47;27.00;71.50
51615;DHT22;37695;52.960;6.188;2023-06-14T13:57:12;27.10;68.80
51615;DHT22;37695;52.960;6.188;2023-06-14T13:59:39;26.80;67.50
51615;DHT22;37695;52.960;6.188;2023-06-14T14:02:06;26.90;69.90
51615;DHT22;37695;52.960;6.188;2023-06-14T14:04:33;26.80;67.80
51615;DHT22;37695;52.960;6.188;2023-06-14T14:06:59;26.90;69.20
51615;DHT22;37695;52.960;6.188;2023-06-14T14:09:25;26.90;67.90
51615;DHT22;37695;52.960;6.188;2023-06-14T14:11:50;26.80;70.60
51615;DHT22;37695;52.960;6.188;2023-06-14T14:14:16;26.90;70.00
51615;DHT22;37695;52.960;6.188;2023-06-14T14:16:41;27.10;70.40
51615;DHT22;37695;52.960;6.188;2023-06-14T14:19:07;27.10;70.00
51615;DHT22;37695;52.960;6.188;2023-06-14T14:21:33;27.10;67.20
51615;DHT22;37695;52.960;6.188;2023-06-14T14:23:58;26.90;68.10
51615;DHT22;37695;52.960;6.188;2023-06-14T14:26:24;27.00;68.90
51615;DHT22;37695;52.960;6.188;2023-06-14T14:28:51;27.00;67.90
51615;DHT22;37695;52.960;6.188;2023-06-14T14:31:17;27.20;69.30
51615;DHT22;37695;52.960;6.188;2023-06-14T14:33:42;27.10;66.60
51615;DHT22;37695;52.960;6.188;2023-06-14T14:36:08;26.90;69.00
51615;DHT22;37695;52.960;6.188;2023-06-14T14:38:33;26.70;68.20
51615;DHT22;37695;52.960;6.188;2023-06-14T14:40:59;26.80;68.70
51615;DHT22;37695;52.960;6.188;2023-06-14T14:43:25;26.90;70.20
51615;DHT22;37695;52.960;6.188;2023-06-14T14:45:50;27.10;68.90
51615;DHT22;37695;52.960;6.188;2023-06-14T14:48:16;27.30;69.50
51615;DHT22;37695;52.960;6.188;2023-06-14T14:50:41;27.30;68.90
51615;DHT22;37695;52.960;6.188;2023-06-14T14:53:07;27.50;68.20
51615;DHT22;37695;52.960;6.188;2023-06-14T14:55:33;27.30;68.20
51615;DHT22;37695;52.960;6.188;2023-06-14T14:58:01;27.20;68.30
51615;DHT22;37695;52.960;6.188;2023-06-14T15:00:27;27.10;68.00
51615;DHT22;37695;52.960;6.188;2023-06-14T15:02:53;27.20;69.30
51615;DHT22;37695;52.960;6.188;2023-06-14T15:05:19;27.30;69.00
51615;DHT22;37695;52.960;6.188;2023-06-14T15:07:44;27.50;67.60
51615;DHT22;37695;52.960;6.188;2023-06-14T15:10:11;27.40;69.00
51615;DHT22;37695;52.960;6.188;2023-06-14T15:12:37;27.20;67.80
51615;DHT22;37695;52.960;6.188;2023-06-14T15:15:03;27.10;68.80
51615;DHT22;37695;52.960;6.188;2023-06-14T15:17:29;27.10;70.00
51615;DHT22;37695;52.960;6.188;2023-06-14T15:19:55;26.80;67.50
51615;DHT22;37695;52.960;6.188;2023-06-14T15:22:21;26.60;69.10
51615;DHT22;37695;52.960;6.188;2023-06-14T15:24:46;26.20;70.00
51615;DHT22;37695;52.960;6.188;2023-06-14T15:27:12;25.90;66.00
51615;DHT22;37695;52.960;6.188;2023-06-14T15:29:41;25.70;67.30
51615;DHT22;37695;52.960;6.188;2023-06-14T15:32:08;25.60;68.30
51615;DHT22;37695;52.960;6.188;2023-06-14T15:34:34;25.70;69.40
51615;DHT22;37695;52.960;6.188;2023-06-14T15:37:00;25.80;68.60